createdAt,value
2019-04-25T00:00:33.336Z,0.00
2019-04-25T00:01:33.320Z,0.00
2019-04-25T00:02:33.289Z,0.00
2019-04-25T00:03:33.267Z,0.00
2019-04-25T00:04:33.239Z,0.00
2019-04-25T00:05:33.220Z,0.00
2019-04-25T00:06:33.195Z,0.00
2019-04-25T00:07:33.168Z,0.00
2019-04-25T00:08:33.146Z,0.00
2019-04-25T00:09:33.131Z,0.00
2019-04-25T00:10:33.101Z,0.00
2019-04-25T00:11:33.073Z,0.00
2019-04-25T00:12:33.048Z,0.00
2019-04-25T00:13:33.029Z,0.00
2019-04-25T00:14:33.005Z,0.00
2019-04-25T00:15:32.982Z,0.00
2019-04-25T00:16:32.957Z,0.00
2019-04-25T00:17:32.937Z,0.00
2019-04-25T00:18:32.908Z,0.00
2019-04-25T00:19:32.902Z,0.00
2019-04-25T00:20:32.859Z,0.00
2019-04-25T00:21:33.897Z,0.00
2019-04-25T00:22:32.817Z,0.00
2019-04-25T00:23:32.793Z,0.00
2019-04-25T00:24:32.766Z,0.00
2019-04-25T00:25:32.744Z,0.00
2019-04-25T00:26:32.719Z,0.00
2019-04-25T00:27:32.701Z,0.00
2019-04-25T00:28:32.672Z,0.00
2019-04-25T00:29:32.647Z,0.00
2019-04-25T00:30:32.630Z,0.00
2019-04-25T00:31:32.601Z,0.00
2019-04-25T00:32:32.577Z,0.00
2019-04-25T00:33:32.554Z,0.00
2019-04-25T00:34:33.703Z,0.00
2019-04-25T00:35:32.499Z,0.00
2019-04-25T00:36:32.496Z,0.00
2019-04-25T00:37:32.470Z,0.00
2019-04-25T00:38:32.425Z,0.00
2019-04-25T00:39:32.412Z,0.00
2019-04-25T00:40:32.377Z,0.00
2019-04-25T00:41:34.067Z,0.00
2019-04-25T00:42:32.334Z,0.00
2019-04-25T00:43:32.307Z,0.00
2019-04-25T00:44:32.289Z,0.00
2019-04-25T00:45:32.266Z,0.00
2019-04-25T00:46:32.298Z,0.00
2019-04-25T00:47:32.217Z,0.00
2019-04-25T00:48:32.193Z,0.00
2019-04-25T00:49:32.312Z,0.00
2019-04-25T00:50:32.148Z,0.00
2019-04-25T00:51:32.123Z,0.00
2019-04-25T00:52:32.097Z,0.00
2019-04-25T00:53:32.432Z,0.00
2019-04-25T00:54:32.048Z,0.00
2019-04-25T00:55:32.021Z,0.00
2019-04-25T00:56:32.244Z,0.00
2019-04-25T00:57:32.173Z,0.00
2019-04-25T00:58:31.953Z,0.00
2019-04-25T00:59:32.090Z,0.00
2019-04-25T01:00:32.671Z,0.00
2019-04-25T01:01:31.878Z,0.00
2019-04-25T01:02:31.855Z,0.00
2019-04-25T01:03:31.840Z,0.00
2019-04-25T01:04:33.568Z,0.00
2019-04-25T01:05:31.783Z,0.00
2019-04-25T01:06:31.945Z,0.00
2019-04-25T01:07:32.449Z,0.00
2019-04-25T01:08:32.030Z,0.00
2019-04-25T01:09:32.326Z,0.00
2019-04-25T01:10:31.675Z,0.00
2019-04-25T01:11:31.636Z,0.00
2019-04-25T01:12:31.611Z,0.00
2019-04-25T01:13:32.186Z,0.00
2019-04-25T01:14:31.971Z,0.00
2019-04-25T01:15:31.550Z,0.00
2019-04-25T01:16:31.866Z,0.00
2019-04-25T01:17:31.584Z,0.00
2019-04-25T01:18:31.506Z,0.00
2019-04-25T01:19:31.440Z,0.00
2019-04-25T01:20:31.414Z,0.00
2019-04-25T01:21:31.385Z,0.00
2019-04-25T01:22:31.367Z,0.00
2019-04-25T01:23:31.344Z,0.00
2019-04-25T01:24:31.316Z,0.00
2019-04-25T01:25:40.702Z,0.00
2019-04-25T01:26:31.270Z,0.00
2019-04-25T01:27:31.241Z,0.00
2019-04-25T01:28:31.223Z,0.00
2019-04-25T01:29:31.201Z,0.00
2019-04-25T01:30:31.171Z,0.00
2019-04-25T01:31:31.145Z,0.00
2019-04-25T01:32:31.119Z,0.00
2019-04-25T01:33:31.106Z,0.00
2019-04-25T01:34:31.072Z,0.00
2019-04-25T01:35:31.046Z,0.00
2019-04-25T01:36:31.023Z,0.00
2019-04-25T01:37:30.994Z,0.00
2019-04-25T01:38:30.972Z,0.00
2019-04-25T01:39:30.950Z,0.00
2019-04-25T01:40:30.924Z,0.00
2019-04-25T01:41:30.906Z,0.00
2019-04-25T01:42:30.868Z,0.00
2019-04-25T01:43:30.853Z,0.00
2019-04-25T01:44:30.818Z,0.00
2019-04-25T01:45:30.799Z,0.00
2019-04-25T01:46:30.777Z,0.00
2019-04-25T01:47:30.750Z,0.00
2019-04-25T01:48:30.723Z,0.00
2019-04-25T01:49:30.697Z,0.00
2019-04-25T01:50:30.677Z,0.00
2019-04-25T01:51:30.647Z,0.00
2019-04-25T01:52:30.632Z,0.00
2019-04-25T01:53:30.603Z,0.00
2019-04-25T01:54:30.585Z,0.00
2019-04-25T01:55:30.551Z,0.00
2019-04-25T01:56:30.521Z,0.00
2019-04-25T01:57:30.503Z,0.00
2019-04-25T01:58:30.477Z,0.00
2019-04-25T01:59:30.453Z,0.00
2019-04-25T02:00:30.427Z,0.00
2019-04-25T02:01:30.399Z,0.00
2019-04-25T02:02:30.377Z,0.00
2019-04-25T02:03:30.352Z,0.00
2019-04-25T02:04:30.323Z,0.00
2019-04-25T02:05:30.304Z,0.00
2019-04-25T02:06:30.274Z,0.00
2019-04-25T02:07:30.252Z,0.00
2019-04-25T02:08:30.223Z,0.00
2019-04-25T02:09:30.201Z,0.00
2019-04-25T02:10:30.173Z,0.00
2019-04-25T02:11:30.151Z,0.00
2019-04-25T02:12:30.130Z,0.00
2019-04-25T02:13:30.098Z,0.00
2019-04-25T02:14:30.079Z,0.00
2019-04-25T02:15:30.060Z,0.00
2019-04-25T02:16:30.024Z,0.00
2019-04-25T02:17:30.002Z,0.00
2019-04-25T02:18:29.975Z,0.00
2019-04-25T02:19:29.944Z,0.00
2019-04-25T02:20:29.927Z,0.00
2019-04-25T02:21:29.902Z,0.00
2019-04-25T02:22:29.878Z,0.00
2019-04-25T02:23:29.860Z,0.00
2019-04-25T02:24:29.826Z,0.00
2019-04-25T02:25:29.802Z,0.00
2019-04-25T02:26:29.775Z,0.00
2019-04-25T02:27:29.747Z,0.00
2019-04-25T02:28:29.722Z,0.00
2019-04-25T02:29:29.700Z,0.00
2019-04-25T02:30:29.684Z,0.00
2019-04-25T02:31:29.652Z,0.00
2019-04-25T02:32:29.633Z,0.00
2019-04-25T02:33:29.604Z,0.00
2019-04-25T02:34:29.578Z,0.00
2019-04-25T02:35:29.697Z,0.00
2019-04-25T02:36:29.530Z,0.00
2019-04-25T02:37:29.496Z,0.00
2019-04-25T02:38:29.474Z,0.00
2019-04-25T02:39:29.446Z,0.00
2019-04-25T02:40:29.430Z,0.00
2019-04-25T02:41:29.403Z,0.00
2019-04-25T02:42:29.399Z,0.00
2019-04-25T02:43:29.352Z,0.00
2019-04-25T02:44:29.323Z,0.00
2019-04-25T02:45:29.293Z,0.00
2019-04-25T02:46:29.278Z,0.00
2019-04-25T02:47:29.248Z,0.00
2019-04-25T02:48:29.223Z,0.00
2019-04-25T02:49:35.882Z,0.00
2019-04-25T02:50:29.170Z,0.00
2019-04-25T02:51:29.157Z,0.00
2019-04-25T02:52:29.116Z,0.00
2019-04-25T02:53:29.094Z,0.00
2019-04-25T02:54:29.066Z,0.00
2019-04-25T02:55:31.923Z,0.00
2019-04-25T02:56:34.473Z,0.00
2019-04-25T02:57:29.007Z,0.00
2019-04-25T02:58:28.966Z,0.00
2019-04-25T02:59:28.939Z,0.00
2019-04-25T03:00:45.684Z,0.00
2019-04-25T03:01:28.907Z,0.00
2019-04-25T03:02:28.870Z,0.00
2019-04-25T03:03:28.844Z,0.00
2019-04-25T03:04:28.820Z,0.00
2019-04-25T03:05:28.801Z,0.00
2019-04-25T03:06:28.926Z,0.00
2019-04-25T03:07:28.764Z,0.00
2019-04-25T03:08:28.719Z,0.00
2019-04-25T03:09:28.701Z,0.00
2019-04-25T03:10:28.667Z,0.00
2019-04-25T03:11:28.657Z,0.00
2019-04-25T03:12:33.248Z,0.00
2019-04-25T03:13:28.595Z,0.00
2019-04-25T03:14:28.582Z,0.00
2019-04-25T03:15:28.538Z,0.00
2019-04-25T03:16:28.535Z,0.00
2019-04-25T03:17:28.493Z,0.00
2019-04-25T03:18:28.462Z,0.00
2019-04-25T03:19:28.437Z,0.00
2019-04-25T03:20:28.419Z,0.00
2019-04-25T03:21:28.423Z,0.00
2019-04-25T03:22:28.362Z,0.00
2019-04-25T03:23:28.347Z,0.00
2019-04-25T03:24:28.312Z,0.00
2019-04-25T03:25:28.287Z,0.00
2019-04-25T03:26:37.880Z,0.00
2019-04-25T03:27:28.233Z,0.00
2019-04-25T03:28:28.212Z,0.00
2019-04-25T03:29:28.189Z,0.00
2019-04-25T03:30:28.178Z,0.00
2019-04-25T03:31:28.142Z,4.00
2019-04-25T03:32:28.595Z,4.00
2019-04-25T03:33:28.106Z,0.00
2019-04-25T03:34:28.063Z,4.00
2019-04-25T03:35:28.045Z,4.00
2019-04-25T03:36:28.010Z,4.00
2019-04-25T03:37:27.984Z,8.00
2019-04-25T03:38:27.985Z,4.00
2019-04-25T03:39:27.934Z,8.00
2019-04-25T03:40:27.915Z,12.00
2019-04-25T03:41:27.887Z,12.00
2019-04-25T03:42:27.869Z,16.00
2019-04-25T03:43:27.837Z,16.00
2019-04-25T03:44:27.816Z,20.00
2019-04-25T03:45:27.781Z,24.00
2019-04-25T03:46:27.758Z,28.00
2019-04-25T03:47:27.733Z,32.00
2019-04-25T03:48:27.707Z,36.00
2019-04-25T03:49:27.682Z,48.00
2019-04-25T03:50:27.655Z,52.00
2019-04-25T03:51:27.628Z,60.00
2019-04-25T03:52:27.604Z,72.00
2019-04-25T03:53:27.591Z,84.00
2019-04-25T03:54:27.553Z,92.00
2019-04-25T03:55:27.530Z,112.00
2019-04-25T03:56:27.505Z,124.00
2019-04-25T03:57:27.472Z,140.00
2019-04-25T03:58:27.453Z,156.00
2019-04-25T03:59:27.426Z,176.00
2019-04-25T04:00:27.403Z,204.00
2019-04-25T04:01:27.376Z,228.00
2019-04-25T04:02:27.351Z,256.00
2019-04-25T04:03:27.319Z,284.00
2019-04-25T04:04:27.300Z,316.00
2019-04-25T04:05:27.275Z,348.00
2019-04-25T04:06:27.250Z,384.00
2019-04-25T04:07:27.223Z,428.00
2019-04-25T04:08:27.196Z,468.00
2019-04-25T04:09:27.174Z,512.00
2019-04-25T04:10:27.149Z,552.00
2019-04-25T04:11:27.123Z,596.00
2019-04-25T04:12:27.093Z,644.00
2019-04-25T04:13:27.066Z,692.00
2019-04-25T04:14:27.045Z,732.00
2019-04-25T04:15:27.020Z,784.00
2019-04-25T04:16:27.000Z,832.00
2019-04-25T04:17:26.963Z,880.00
2019-04-25T04:18:27.113Z,936.00
2019-04-25T04:19:26.917Z,1004.00
2019-04-25T04:20:26.895Z,1080.00
2019-04-25T04:21:26.869Z,1152.00
2019-04-25T04:22:26.842Z,1232.00
2019-04-25T04:23:26.812Z,1320.00
2019-04-25T04:24:26.808Z,1412.00
2019-04-25T04:25:26.765Z,1480.00
2019-04-25T04:26:26.739Z,1552.00
2019-04-25T04:27:26.713Z,1612.00
2019-04-25T04:28:26.692Z,1684.00
2019-04-25T04:29:26.680Z,1744.00
2019-04-25T04:30:26.638Z,1796.00
2019-04-25T04:31:26.611Z,1828.00
2019-04-25T04:32:26.589Z,1892.00
2019-04-25T04:33:32.226Z,1964.00
2019-04-25T04:34:26.533Z,1984.00
2019-04-25T04:35:26.510Z,2088.00
2019-04-25T04:36:26.488Z,2196.00
2019-04-25T04:37:26.463Z,2248.00
2019-04-25T04:38:26.440Z,2284.00
2019-04-25T04:39:26.409Z,2156.00
2019-04-25T04:40:26.385Z,2168.00
2019-04-25T04:41:26.359Z,2252.00
2019-04-25T04:42:26.330Z,2304.00
2019-04-25T04:43:26.304Z,2272.00
2019-04-25T04:44:26.282Z,2324.00
2019-04-25T04:45:26.258Z,2388.00
2019-04-25T04:46:26.235Z,2376.00
2019-04-25T04:47:26.209Z,2392.00
2019-04-25T04:48:26.183Z,2460.00
2019-04-25T04:49:26.158Z,2556.00
2019-04-25T04:50:26.135Z,2680.00
2019-04-25T04:51:26.103Z,2648.00
2019-04-25T04:52:26.083Z,2660.00
2019-04-25T04:53:26.058Z,2756.00
2019-04-25T04:54:26.030Z,2860.00
2019-04-25T04:55:26.008Z,2972.00
2019-04-25T04:56:26.001Z,3016.00
2019-04-25T04:57:32.586Z,2984.00
2019-04-25T04:58:25.936Z,2996.00
2019-04-25T04:59:25.911Z,3020.00
2019-04-25T05:00:25.880Z,3080.00
2019-04-25T05:01:25.857Z,3168.00
2019-04-25T05:02:25.830Z,3272.00
2019-04-25T05:03:26.714Z,3392.00
2019-04-25T05:04:25.812Z,3572.00
2019-04-25T05:05:25.765Z,3796.00
2019-04-25T05:06:25.732Z,3896.00
2019-04-25T05:07:25.707Z,3784.00
2019-04-25T05:08:25.685Z,3872.00
2019-04-25T05:09:25.657Z,3968.00
2019-04-25T05:10:25.635Z,4004.00
2019-04-25T05:11:25.605Z,4000.00
2019-04-25T05:12:25.580Z,3892.00
2019-04-25T05:13:25.556Z,4008.00
2019-04-25T05:14:26.665Z,4192.00
2019-04-25T05:15:25.510Z,4384.00
2019-04-25T05:16:25.492Z,4332.00
2019-04-25T05:17:25.522Z,4472.00
2019-04-25T05:18:36.528Z,4552.00
2019-04-25T05:19:25.410Z,4608.00
2019-04-25T05:20:34.188Z,4608.00
2019-04-25T05:22:18.297Z,5388.00
2019-04-25T05:23:18.871Z,5504.00
2019-04-25T05:25:16.253Z,6272.00
2019-04-25T05:26:15.980Z,6440.00
2019-04-25T05:28:08.473Z,7860.00
2019-04-25T05:29:08.448Z,10920.00
2019-04-25T05:31:03.434Z,13328.00
2019-04-25T05:32:04.271Z,16544.00
2019-04-25T05:33:56.409Z,15264.00
2019-04-25T05:34:56.360Z,21152.00
2019-04-25T05:36:49.247Z,7380.00
2019-04-25T05:37:49.216Z,8036.00
2019-04-25T05:39:43.461Z,7464.00
2019-04-25T05:40:43.745Z,7340.00
2019-04-25T05:42:34.925Z,10624.00
2019-04-25T05:43:34.891Z,17632.00
2019-04-25T05:45:30.335Z,14276.00
2019-04-25T05:46:30.286Z,12276.00
2019-04-25T05:48:26.354Z,20192.00
2019-04-25T05:49:26.364Z,16608.00
2019-04-25T05:51:19.453Z,13468.00
2019-04-25T05:52:18.524Z,13244.00
2019-04-25T05:54:13.983Z,12996.00
2019-04-25T05:55:14.338Z,12852.00
2019-04-25T05:57:05.246Z,12464.00
2019-04-25T05:58:05.219Z,12476.00
2019-04-25T05:59:59.169Z,12600.00
2019-04-25T06:00:59.096Z,12480.00
2019-04-25T06:02:53.335Z,12496.00
2019-04-25T06:03:53.535Z,12760.00
2019-04-25T06:05:44.879Z,13228.00
2019-04-25T06:06:44.836Z,13260.00
2019-04-25T06:08:38.187Z,13204.00
2019-04-25T06:09:38.165Z,12964.00
2019-04-25T06:11:31.089Z,13004.00
2019-04-25T06:12:31.036Z,13136.00
2019-04-25T06:14:40.007Z,13480.00
2019-04-25T06:15:39.953Z,13620.00
2019-04-25T06:17:37.862Z,13640.00
2019-04-25T06:18:37.834Z,13760.00
2019-04-25T06:20:35.981Z,14000.00
2019-04-25T06:21:35.906Z,14196.00
2019-04-25T06:23:30.307Z,14572.00
2019-04-25T06:24:30.298Z,14768.00
2019-04-25T06:26:40.043Z,15116.00
2019-04-25T06:27:39.213Z,15368.00
2019-04-25T06:29:35.219Z,15652.00
2019-04-25T06:30:35.257Z,15752.00
2019-04-25T06:31:34.556Z,15824.00
2019-04-25T06:32:35.503Z,15900.00
2019-04-25T06:33:34.539Z,16028.00
2019-04-25T06:34:36.318Z,16156.00
2019-04-25T06:35:35.766Z,16512.00
2019-04-25T06:36:35.366Z,16768.00
2019-04-25T06:37:35.124Z,17056.00
2019-04-25T06:38:34.435Z,17056.00
2019-04-25T06:39:34.423Z,16832.00
2019-04-25T06:40:34.595Z,16928.00
2019-04-25T06:41:35.343Z,17024.00
2019-04-25T06:42:34.707Z,17248.00
2019-04-25T06:43:34.356Z,17440.00
2019-04-25T06:44:34.545Z,17600.00
2019-04-25T06:45:34.491Z,17888.00
2019-04-25T06:46:34.328Z,18400.00
2019-04-25T06:47:34.299Z,19360.00
2019-04-25T06:48:35.168Z,22432.00
2019-04-25T06:49:36.491Z,29952.00
2019-04-25T06:50:35.401Z,37920.00
2019-04-25T06:51:34.354Z,47264.00
2019-04-25T06:52:35.420Z,56512.00
2019-04-25T06:53:34.625Z,62400.00
2019-04-25T06:54:35.253Z,65824.00
2019-04-25T06:55:34.382Z,66176.00
2019-04-25T06:56:34.508Z,63104.00
2019-04-25T06:57:34.237Z,61280.00
2019-04-25T06:58:34.302Z,64320.00
2019-04-25T06:59:34.539Z,67904.00
2019-04-25T07:00:40.800Z,69728.00
2019-04-25T07:01:34.686Z,67232.00
2019-04-25T07:02:35.178Z,65152.00
2019-04-25T07:03:35.615Z,67168.00
2019-04-25T07:04:34.855Z,68704.00
2019-04-25T07:05:40.157Z,69696.00
2019-04-25T07:06:34.718Z,71616.00
2019-04-25T07:07:35.135Z,73248.00
2019-04-25T07:08:35.325Z,75072.00
2019-04-25T07:09:34.950Z,75520.00
2019-04-25T07:10:34.880Z,77312.00
2019-04-25T07:11:34.855Z,78688.00
2019-04-25T07:12:34.847Z,77312.00
2019-04-25T07:13:37.241Z,77280.00
2019-04-25T07:14:36.806Z,78784.00
2019-04-25T07:15:35.181Z,79072.00
2019-04-25T07:16:34.693Z,77248.00
2019-04-25T07:17:34.972Z,75968.00
2019-04-25T07:18:36.337Z,76960.00
2019-04-25T07:19:34.376Z,79680.00
2019-04-25T07:20:34.579Z,81536.00
2019-04-25T07:21:34.671Z,83232.00
2019-04-25T07:22:35.032Z,80672.00
2019-04-25T07:23:34.630Z,75136.00
2019-04-25T07:24:35.241Z,75552.00
2019-04-25T07:25:35.328Z,81056.00
2019-04-25T07:26:37.096Z,85728.00
2019-04-25T07:27:48.512Z,86432.00
2019-04-25T07:29:36.720Z,81984.00
2019-04-25T07:30:48.617Z,84192.00
2019-04-25T07:32:37.082Z,90784.00
2019-04-25T07:33:37.021Z,88800.00
2019-04-25T07:35:40.010Z,83712.00
2019-04-25T07:36:39.913Z,84960.00
2019-04-25T07:38:35.023Z,86208.00
2019-04-25T07:39:35.291Z,87072.00
2019-04-25T07:40:34.966Z,87840.00
2019-04-25T07:41:36.820Z,86080.00
2019-04-25T07:42:35.194Z,84384.00
2019-04-25T07:43:35.421Z,83168.00
2019-04-25T07:44:48.911Z,84896.00
2019-04-25T07:45:35.062Z,86848.00
2019-04-25T07:46:38.197Z,87904.00
2019-04-25T07:47:35.059Z,90976.00
2019-04-25T07:48:36.748Z,93312.00
2019-04-25T07:49:34.827Z,95264.00
2019-04-25T07:50:35.358Z,94720.00
2019-04-25T07:51:35.252Z,92704.00
2019-04-25T07:52:34.840Z,90592.00
2019-04-25T07:53:35.142Z,91296.00
2019-04-25T07:54:35.402Z,93376.00
2019-04-25T07:55:36.323Z,92320.00
2019-04-25T07:56:35.193Z,91200.00
2019-04-25T07:57:34.940Z,97280.00
2019-04-25T07:58:45.354Z,104416.00
2019-04-25T07:59:35.352Z,106880.00
2019-04-25T08:00:35.251Z,103264.00
2019-04-25T08:01:36.626Z,96352.00
2019-04-25T08:02:35.006Z,90336.00
2019-04-25T08:03:34.442Z,87264.00
2019-04-25T08:04:35.735Z,90048.00
2019-04-25T08:05:35.366Z,97664.00
2019-04-25T08:06:34.565Z,101184.00
2019-04-25T08:07:35.289Z,101248.00
2019-04-25T08:08:34.939Z,97024.00
2019-04-25T08:09:35.221Z,91328.00
2019-04-25T08:10:34.684Z,91552.00
2019-04-25T08:11:35.051Z,92896.00
2019-04-25T08:12:34.683Z,97664.00
2019-04-25T08:13:34.877Z,102880.00
2019-04-25T08:14:34.918Z,103968.00
2019-04-25T08:15:34.965Z,102080.00
2019-04-25T08:16:34.805Z,97888.00
2019-04-25T08:17:35.819Z,96512.00
2019-04-25T08:18:35.089Z,96192.00
2019-04-25T08:19:34.688Z,99456.00
2019-04-25T08:20:34.713Z,103328.00
2019-04-25T08:21:34.493Z,105088.00
2019-04-25T08:22:42.915Z,106368.00
2019-04-25T08:23:36.699Z,105344.00
2019-04-25T08:24:34.877Z,106368.00
2019-04-25T08:25:36.625Z,104064.00
2019-04-25T08:26:35.002Z,103200.00
2019-04-25T08:27:34.762Z,101152.00
2019-04-25T08:28:34.549Z,98592.00
2019-04-25T08:29:36.370Z,98240.00
2019-04-25T08:30:35.321Z,99968.00
2019-04-25T08:31:34.894Z,102880.00
2019-04-25T08:32:35.532Z,105184.00
2019-04-25T08:33:34.535Z,107136.00
2019-04-25T08:34:34.804Z,111072.00
2019-04-25T08:35:34.271Z,114560.00
2019-04-25T08:36:36.679Z,115808.00
2019-04-25T08:37:34.473Z,112544.00
2019-04-25T08:38:34.755Z,109600.00
2019-04-25T08:39:36.951Z,107520.00
2019-04-25T08:40:35.757Z,108544.00
2019-04-25T08:41:34.816Z,111936.00
2019-04-25T08:42:35.430Z,113920.00
2019-04-25T08:43:36.333Z,113024.00
2019-04-25T08:44:34.785Z,111776.00
2019-04-25T08:45:35.391Z,110368.00
2019-04-25T08:46:35.850Z,112160.00
2019-04-25T08:47:35.781Z,114784.00
2019-04-25T08:48:34.525Z,117280.00
2019-04-25T08:49:34.906Z,117888.00
2019-04-25T08:50:37.199Z,119072.00
2019-04-25T08:51:34.880Z,118592.00
2019-04-25T08:52:35.148Z,117056.00
2019-04-25T08:53:35.158Z,115072.00
2019-04-25T08:54:35.393Z,113568.00
2019-04-25T08:55:34.910Z,111136.00
2019-04-25T08:56:35.105Z,110912.00
2019-04-25T08:57:34.764Z,113792.00
2019-04-25T08:58:35.294Z,116448.00
2019-04-25T08:59:40.113Z,116800.00
2019-04-25T09:00:35.704Z,116128.00
2019-04-25T09:01:36.515Z,114848.00
2019-04-25T09:02:35.884Z,112480.00
2019-04-25T09:03:35.264Z,112608.00
2019-04-25T09:04:35.662Z,114656.00
2019-04-25T09:05:35.823Z,117088.00
2019-04-25T09:06:36.063Z,119584.00
2019-04-25T09:07:35.421Z,121600.00
2019-04-25T09:08:36.006Z,121408.00
2019-04-25T09:09:35.375Z,117568.00
2019-04-25T09:10:36.842Z,114528.00
2019-04-25T09:11:34.854Z,112896.00
2019-04-25T09:12:35.586Z,113440.00
2019-04-25T09:13:35.859Z,118528.00
2019-04-25T09:14:35.215Z,124288.00
2019-04-25T09:15:35.648Z,128544.00
2019-04-25T09:16:35.366Z,131936.00
2019-04-25T09:17:35.858Z,132256.00
2019-04-25T09:18:35.707Z,129664.00
2019-04-25T09:19:35.877Z,125536.00
2019-04-25T09:20:38.043Z,120352.00
2019-04-25T09:21:35.275Z,115712.00
2019-04-25T09:22:35.280Z,108896.00
2019-04-25T09:23:34.607Z,106208.00
2019-04-25T09:24:36.284Z,107520.00
2019-04-25T09:25:34.605Z,112960.00
2019-04-25T09:26:34.901Z,120352.00
2019-04-25T09:27:34.372Z,126432.00
2019-04-25T09:28:34.735Z,131232.00
2019-04-25T09:29:34.371Z,131232.00
2019-04-25T09:30:34.950Z,129152.00
2019-04-25T09:31:34.582Z,126080.00
2019-04-25T09:32:33.842Z,124032.00
2019-04-25T09:33:35.122Z,122784.00
2019-04-25T09:34:33.614Z,121280.00
2019-04-25T09:35:33.618Z,117440.00
2019-04-25T09:36:33.623Z,113248.00
2019-04-25T09:37:33.621Z,112064.00
2019-04-25T09:38:34.770Z,114912.00
2019-04-25T09:39:33.807Z,118144.00
2019-04-25T09:40:34.170Z,122304.00
2019-04-25T09:41:33.611Z,124576.00
2019-04-25T09:42:33.827Z,128320.00
2019-04-25T09:43:33.537Z,128864.00
2019-04-25T09:44:33.103Z,128896.00
2019-04-25T09:45:33.558Z,129792.00
2019-04-25T09:46:34.157Z,130368.00
2019-04-25T09:47:33.509Z,129152.00
2019-04-25T09:48:35.361Z,129696.00
2019-04-25T09:49:34.992Z,129696.00
2019-04-25T09:50:34.004Z,129696.00
2019-04-25T09:51:33.596Z,128384.00
2019-04-25T09:52:34.029Z,125760.00
2019-04-25T09:53:34.839Z,122592.00
2019-04-25T09:54:33.461Z,120032.00
2019-04-25T09:55:34.055Z,120064.00
2019-04-25T09:56:33.964Z,122848.00
2019-04-25T09:57:33.567Z,127968.00
2019-04-25T09:58:33.829Z,131584.00
2019-04-25T09:59:33.223Z,134784.00
2019-04-25T10:00:33.398Z,136128.00
2019-04-25T10:01:33.898Z,136064.00
2019-04-25T10:02:32.956Z,134240.00
2019-04-25T10:03:33.366Z,132128.00
2019-04-25T10:04:34.555Z,129536.00
2019-04-25T10:05:33.945Z,128288.00
2019-04-25T10:06:33.350Z,125504.00
2019-04-25T10:07:32.942Z,121152.00
2019-04-25T10:08:34.297Z,117664.00
2019-04-25T10:09:33.750Z,116768.00
2019-04-25T10:10:32.896Z,120704.00
2019-04-25T10:11:33.513Z,125120.00
2019-04-25T10:12:34.184Z,128704.00
2019-04-25T10:13:33.736Z,135168.00
2019-04-25T10:14:32.874Z,141152.00
2019-04-25T10:15:33.916Z,141312.00
2019-04-25T10:16:33.498Z,133280.00
2019-04-25T10:17:33.775Z,126944.00
2019-04-25T10:18:33.481Z,124576.00
2019-04-25T10:19:34.345Z,127968.00
2019-04-25T10:20:33.368Z,135008.00
2019-04-25T10:21:34.262Z,141984.00
2019-04-25T10:22:33.914Z,141984.00
2019-04-25T10:23:34.236Z,138720.00
2019-04-25T10:24:32.790Z,131744.00
2019-04-25T10:25:33.438Z,129408.00
2019-04-25T10:26:34.781Z,130144.00
2019-04-25T10:27:32.776Z,132768.00
2019-04-25T10:28:33.574Z,135776.00
2019-04-25T10:29:41.661Z,135488.00
2019-04-25T10:30:34.209Z,133152.00
2019-04-25T10:31:33.899Z,130656.00
2019-04-25T10:32:33.536Z,133664.00
2019-04-25T10:33:32.721Z,129184.00
2019-04-25T10:34:33.336Z,135936.00
2019-04-25T10:35:40.864Z,127744.00
2019-04-25T10:36:33.612Z,136576.00
2019-04-25T10:37:33.650Z,138464.00
2019-04-25T10:38:33.615Z,139840.00
2019-04-25T10:39:34.031Z,132768.00
2019-04-25T10:40:33.813Z,139584.00
2019-04-25T10:41:33.704Z,136224.00
2019-04-25T10:42:34.235Z,136128.00
2019-04-25T10:43:34.175Z,134784.00
2019-04-25T10:44:33.889Z,134144.00
2019-04-25T10:45:34.049Z,132960.00
2019-04-25T10:46:33.981Z,133408.00
2019-04-25T10:47:33.455Z,137728.00
2019-04-25T10:48:34.258Z,140160.00
2019-04-25T10:49:34.366Z,134272.00
2019-04-25T10:50:34.098Z,130272.00
2019-04-25T10:51:34.163Z,126208.00
2019-04-25T10:52:33.786Z,123520.00
2019-04-25T10:53:33.852Z,123200.00
2019-04-25T10:54:33.776Z,119360.00
2019-04-25T10:55:32.577Z,127264.00
2019-04-25T10:56:33.517Z,128512.00
2019-04-25T10:57:33.989Z,127200.00
2019-04-25T10:58:33.495Z,122624.00
2019-04-25T10:59:32.555Z,120160.00
2019-04-25T11:00:33.882Z,118016.00
2019-04-25T11:01:33.904Z,117504.00
2019-04-25T11:02:33.909Z,129728.00
2019-04-25T11:03:33.690Z,140320.00
2019-04-25T11:04:32.516Z,147040.00
2019-04-25T11:05:34.193Z,137696.00
2019-04-25T11:06:33.634Z,122464.00
2019-04-25T11:07:33.921Z,107456.00
2019-04-25T11:08:34.014Z,101728.00
2019-04-25T11:09:34.053Z,108000.00
2019-04-25T11:10:34.298Z,120640.00
2019-04-25T11:11:34.073Z,129952.00
2019-04-25T11:12:33.816Z,129408.00
2019-04-25T11:13:33.902Z,124576.00
2019-04-25T11:14:34.014Z,118528.00
2019-04-25T11:15:33.906Z,116608.00
2019-04-25T11:16:33.302Z,124608.00
2019-04-25T11:17:33.902Z,126464.00
2019-04-25T11:18:33.928Z,131232.00
2019-04-25T11:19:33.858Z,131648.00
2019-04-25T11:20:33.842Z,126880.00
2019-04-25T11:21:33.323Z,121216.00
2019-04-25T11:22:34.117Z,119552.00
2019-04-25T11:23:32.408Z,120256.00
2019-04-25T11:24:32.383Z,124320.00
2019-04-25T11:25:34.060Z,125760.00
2019-04-25T11:26:34.526Z,128864.00
2019-04-25T11:27:33.973Z,128640.00
2019-04-25T11:28:33.790Z,128576.00
2019-04-25T11:29:33.972Z,122752.00
2019-04-25T11:30:32.368Z,121568.00
2019-04-25T11:31:33.737Z,121600.00
2019-04-25T11:32:33.940Z,119616.00
2019-04-25T11:33:33.490Z,121536.00
2019-04-25T11:34:32.322Z,126080.00
2019-04-25T11:35:42.048Z,129024.00
2019-04-25T11:37:26.729Z,126720.00
2019-04-25T11:38:26.698Z,127040.00
2019-04-25T11:39:26.692Z,127552.00
2019-04-25T11:40:26.689Z,126400.00
2019-04-25T11:41:26.683Z,123104.00
2019-04-25T11:42:26.676Z,123264.00
2019-04-25T11:43:26.663Z,117984.00
2019-04-25T11:44:26.658Z,113600.00
2019-04-25T11:45:26.654Z,113952.00
2019-04-25T11:46:26.643Z,119200.00
2019-04-25T11:47:26.641Z,124608.00
2019-04-25T11:48:26.637Z,130880.00
2019-04-25T11:49:26.625Z,131872.00
2019-04-25T11:50:26.624Z,128608.00
2019-04-25T11:51:26.618Z,124224.00
2019-04-25T11:52:28.178Z,119904.00
2019-04-25T11:53:26.606Z,113280.00
2019-04-25T11:54:26.595Z,109952.00
2019-04-25T11:55:26.591Z,110816.00
2019-04-25T11:56:26.591Z,104416.00
2019-04-25T11:57:26.585Z,107712.00
2019-04-25T11:58:26.576Z,114528.00
2019-04-25T11:59:26.571Z,119392.00
2019-04-25T12:00:26.561Z,124640.00
2019-04-25T12:01:26.556Z,128384.00
2019-04-25T12:02:26.545Z,127744.00
2019-04-25T12:03:26.564Z,125408.00
2019-04-25T12:04:26.533Z,116768.00
2019-04-25T12:05:26.549Z,111424.00
2019-04-25T12:06:26.525Z,111040.00
2019-04-25T12:07:26.512Z,114560.00
2019-04-25T12:08:26.511Z,114944.00
2019-04-25T12:09:26.519Z,114912.00
2019-04-25T12:10:26.515Z,114592.00
2019-04-25T12:11:26.494Z,111360.00
2019-04-25T12:12:26.494Z,105984.00
2019-04-25T12:13:26.482Z,104832.00
2019-04-25T12:14:26.475Z,100960.00
2019-04-25T12:15:26.479Z,96032.00
2019-04-25T12:16:26.464Z,101120.00
2019-04-25T12:17:26.460Z,106848.00
2019-04-25T12:18:26.450Z,112288.00
2019-04-25T12:19:34.490Z,114976.00
2019-04-25T12:20:26.446Z,117312.00
2019-04-25T12:21:26.445Z,112672.00
2019-04-25T12:22:26.426Z,109152.00
2019-04-25T12:23:26.421Z,103872.00
2019-04-25T12:24:26.414Z,90656.00
2019-04-25T12:25:26.409Z,81888.00
2019-04-25T12:26:26.440Z,81728.00
2019-04-25T12:27:26.391Z,87904.00
2019-04-25T12:28:26.391Z,96320.00
2019-04-25T12:29:26.393Z,104384.00
2019-04-25T12:30:37.340Z,107648.00
2019-04-25T12:31:26.373Z,106848.00
2019-04-25T12:32:26.361Z,101376.00
2019-04-25T12:33:26.364Z,97376.00
2019-04-25T12:34:26.344Z,99232.00